sensor_id;sensor_type;location;lat;lon;timestamp;pressure;altitude;pressure_sealevel;temperature;humidity
69971;BME280;57301;50.328;8.542;2022-10-22T00:01:34;98104.72;;;13.05;99.50
69971;BME280;57301;50.328;8.542;2022-10-22T00:04:01;98104.41;;;13.00;99.69
69971;BME280;57301;50.328;8.542;2022-10-22T00:06:28;98101.22;;;13.04;99.51
69971;BME280;57301;50.328;8.542;2022-10-22T00:08:54;98110.59;;;13.00;99.23
69971;BME280;57301;50.328;8.542;2022-10-22T00:11:21;98112.34;;;12.93;99.82
69971;BME280;57301;50.328;8.542;2022-10-22T00:13:48;98098.31;;;12.91;100.00
69971;BME280;57301;50.328;8.542;2022-10-22T00:16:15;98096.41;;;13.00;100.00
69971;BME280;57301;50.328;8.542;2022-10-22T00:18:41;98096.34;;;13.08;100.00
69971;BME280;57301;50.328;8.542;2022-10-22T00:21:08;98089.31;;;13.07;100.00
69971;BME280;57301;50.328;8.542;2022-10-22T00:23:34;98075.28;;;13.05;99.95
69971;BME280;57301;50.328;8.542;2022-10-22T00:26:01;98090.13;;;13.07;99.36
69971;BME280;57301;50.328;8.542;2022-10-22T00:28:27;98087.00;;;13.04;98.92
69971;BME280;57301;50.328;8.542;2022-10-22T00:30:55;98082.66;;;13.03;99.21
69971;BME280;57301;50.328;8.542;2022-10-22T00:33:23;98088.03;;;13.03;98.80
69971;BME280;57301;50.328;8.542;2022-10-22T00:35:49;98074.44;;;13.04;98.71
69971;BME280;57301;50.328;8.542;2022-10-22T00:38:16;98065.59;;;13.04;97.80
69971;BME280;57301;50.328;8.542;2022-10-22T00:40:43;98071.16;;;12.94;98.46
69971;BME280;57301;50.328;8.542;2022-10-22T00:43:14;98071.53;;;12.91;98.81
69971;BME280;57301;50.328;8.542;2022-10-22T00:45:42;98072.00;;;12.95;98.35
69971;BME280;57301;50.328;8.542;2022-10-22T00:48:10;98065.00;;;12.94;98.60
69971;BME280;57301;50.328;8.542;2022-10-22T00:50:49;98062.81;;;12.97;99.05
69971;BME280;57301;50.328;8.542;2022-10-22T00:53:20;98063.63;;;12.98;98.72
69971;BME280;57301;50.328;8.542;2022-10-22T00:55:50;98056.44;;;12.98;99.03
69971;BME280;57301;50.328;8.542;2022-10-22T00:58:19;98055.22;;;13.01;98.73
69971;BME280;57301;50.328;8.542;2022-10-22T01:00:47;98058.38;;;13.04;98.84
69971;BME280;57301;50.328;8.542;2022-10-22T01:03:14;98067.88;;;13.07;98.45
69971;BME280;57301;50.328;8.542;2022-10-22T01:05:49;98074.56;;;13.11;98.23
69971;BME280;57301;50.328;8.542;2022-10-22T01:13:58;98070.19;;;12.95;97.31
69971;BME280;57301;50.328;8.542;2022-10-22T01:21:45;98079.38;;;12.93;98.70
69971;BME280;57301;50.328;8.542;2022-10-22T01:29:47;98103.00;;;12.66;100.00
69971;BME280;57301;50.328;8.542;2022-10-22T01:32:21;98103.44;;;12.70;100.00
69971;BME280;57301;50.328;8.542;2022-10-22T01:34:54;98104.31;;;12.93;100.00
69971;BME280;57301;50.328;8.542;2022-10-22T01:37:25;98109.34;;;12.88;100.00
69971;BME280;57301;50.328;8.542;2022-10-22T01:39:53;98113.00;;;12.95;100.00
69971;BME280;57301;50.328;8.542;2022-10-22T01:42:21;98104.31;;;12.93;100.00
69971;BME280;57301;50.328;8.542;2022-10-22T01:44:48;98100.31;;;13.12;100.00
69971;BME280;57301;50.328;8.542;2022-10-22T01:50:38;98101.94;;;12.98;100.00
69971;BME280;57301;50.328;8.542;2022-10-22T01:59:07;98097.53;;;13.05;100.00
69971;BME280;57301;50.328;8.542;2022-10-22T02:01:48;98097.94;;;13.17;100.00
69971;BME280;57301;50.328;8.542;2022-10-22T02:04:22;98112.81;;;12.97;100.00
69971;BME280;57301;50.328;8.542;2022-10-22T02:06:54;98120.31;;;13.01;100.00
69971;BME280;57301;50.328;8.542;2022-10-22T02:09:24;98109.59;;;12.78;100.00
69971;BME280;57301;50.328;8.542;2022-10-22T02:11:53;98093.13;;;12.89;100.00
69971;BME280;57301;50.328;8.542;2022-10-22T02:14:21;98088.13;;;13.09;99.73
69971;BME280;57301;50.328;8.542;2022-10-22T02:16:49;98088.97;;;13.10;99.50
69971;BME280;57301;50.328;8.542;2022-10-22T02:19:26;98094.06;;;13.19;99.49
69971;BME280;57301;50.328;8.542;2022-10-22T02:21:53;98082.50;;;13.19;100.00
69971;BME280;57301;50.328;8.542;2022-10-22T02:24:21;98089.72;;;13.18;100.00
69971;BME280;57301;50.328;8.542;2022-10-22T02:26:58;98091.34;;;13.28;100.00
69971;BME280;57301;50.328;8.542;2022-10-22T02:29:33;98083.22;;;13.13;100.00
69971;BME280;57301;50.328;8.542;2022-10-22T02:32:02;98083.50;;;13.26;100.00
69971;BME280;57301;50.328;8.542;2022-10-22T02:34:31;98078.56;;;13.15;100.00
69971;BME280;57301;50.328;8.542;2022-10-22T02:36:59;98090.03;;;13.24;99.75
69971;BME280;57301;50.328;8.542;2022-10-22T02:39:27;98094.34;;;13.33;99.16
69971;BME280;57301;50.328;8.542;2022-10-22T02:41:55;98110.13;;;13.42;97.68
69971;BME280;57301;50.328;8.542;2022-10-22T02:44:23;98125.66;;;13.47;98.02
69971;BME280;57301;50.328;8.542;2022-10-22T02:46:50;98112.66;;;13.59;97.02
69971;BME280;57301;50.328;8.542;2022-10-22T02:49:16;98122.16;;;13.61;97.31
69971;BME280;57301;50.328;8.542;2022-10-22T02:51:43;98129.88;;;13.64;97.58
69971;BME280;57301;50.328;8.542;2022-10-22T02:54:09;98133.38;;;13.65;96.88
69971;BME280;57301;50.328;8.542;2022-10-22T02:56:36;98131.22;;;13.60;96.99
69971;BME280;57301;50.328;8.542;2022-10-22T02:59:02;98127.00;;;13.28;99.04
69971;BME280;57301;50.328;8.542;2022-10-22T03:01:29;98141.28;;;13.21;100.00
69971;BME280;57301;50.328;8.542;2022-10-22T03:03:55;98145.38;;;13.08;100.00
69971;BME280;57301;50.328;8.542;2022-10-22T03:06:22;98124.84;;;13.24;100.00
69971;BME280;57301;50.328;8.542;2022-10-22T03:08:48;98120.00;;;13.19;100.00
69971;BME280;57301;50.328;8.542;2022-10-22T03:11:15;98117.16;;;12.98;100.00
69971;BME280;57301;50.328;8.542;2022-10-22T03:13:41;98123.66;;;13.03;100.00
69971;BME280;57301;50.328;8.542;2022-10-22T03:16:07;98114.06;;;13.09;100.00
69971;BME280;57301;50.328;8.542;2022-10-22T03:18:34;98112.88;;;13.11;100.00
69971;BME280;57301;50.328;8.542;2022-10-22T03:21:11;98129.03;;;13.26;100.00
69971;BME280;57301;50.328;8.542;2022-10-22T03:23:41;98129.13;;;13.10;100.00
69971;BME280;57301;50.328;8.542;2022-10-22T03:26:09;98122.84;;;12.95;100.00
69971;BME280;57301;50.328;8.542;2022-10-22T03:28:39;98126.66;;;13.00;100.00
69971;BME280;57301;50.328;8.542;2022-10-22T03:31:06;98124.78;;;13.09;100.00
69971;BME280;57301;50.328;8.542;2022-10-22T03:33:32;98130.59;;;13.21;100.00
69971;BME280;57301;50.328;8.542;2022-10-22T03:35:59;98132.41;;;13.20;100.00
69971;BME280;57301;50.328;8.542;2022-10-22T03:38:26;98131.97;;;13.08;100.00
69971;BME280;57301;50.328;8.542;2022-10-22T03:40:52;98134.34;;;13.03;100.00
69971;BME280;57301;50.328;8.542;2022-10-22T03:43:21;98126.25;;;13.11;100.00
69971;BME280;57301;50.328;8.542;2022-10-22T03:45:48;98126.34;;;13.26;100.00
69971;BME280;57301;50.328;8.542;2022-10-22T03:48:14;98130.50;;;13.29;100.00
69971;BME280;57301;50.328;8.542;2022-10-22T03:50:41;98146.78;;;13.42;100.00
69971;BME280;57301;50.328;8.542;2022-10-22T03:53:07;98147.13;;;13.62;100.00
69971;BME280;57301;50.328;8.542;2022-10-22T03:55:36;98149.56;;;13.71;100.00
69971;BME280;57301;50.328;8.542;2022-10-22T03:58:04;98154.91;;;13.71;100.00
69971;BME280;57301;50.328;8.542;2022-10-22T04:00:31;98161.91;;;13.58;100.00
69971;BME280;57301;50.328;8.542;2022-10-22T04:02:59;98161.44;;;13.54;100.00
69971;BME280;57301;50.328;8.542;2022-10-22T04:05:25;98159.28;;;13.50;100.00
69971;BME280;57301;50.328;8.542;2022-10-22T04:07:52;98154.59;;;13.52;100.00
69971;BME280;57301;50.328;8.542;2022-10-22T04:10:18;98154.22;;;13.55;100.00
69971;BME280;57301;50.328;8.542;2022-10-22T04:12:48;98151.75;;;13.68;100.00
69971;BME280;57301;50.328;8.542;2022-10-22T04:15:15;98170.00;;;13.50;100.00
69971;BME280;57301;50.328;8.542;2022-10-22T04:17:41;98162.97;;;13.49;100.00
69971;BME280;57301;50.328;8.542;2022-10-22T04:20:09;98165.84;;;13.47;100.00
69971;BME280;57301;50.328;8.542;2022-10-22T04:22:36;98162.56;;;13.75;100.00
69971;BME280;57301;50.328;8.542;2022-10-22T04:25:03;98155.22;;;13.91;100.00
69971;BME280;57301;50.328;8.542;2022-10-22T04:27:31;98159.34;;;13.79;100.00
69971;BME280;57301;50.328;8.542;2022-10-22T04:29:58;98166.13;;;13.90;100.00
69971;BME280;57301;50.328;8.542;2022-10-22T04:32:25;98165.53;;;13.80;100.00
69971;BME280;57301;50.328;8.542;2022-10-22T04:34:52;98182.09;;;13.83;100.00
69971;BME280;57301;50.328;8.542;2022-10-22T04:37:19;98182.66;;;13.79;100.00
69971;BME280;57301;50.328;8.542;2022-10-22T04:39:45;98192.78;;;13.68;100.00
69971;BME280;57301;50.328;8.542;2022-10-22T04:42:12;98193.56;;;13.54;100.00
69971;BME280;57301;50.328;8.542;2022-10-22T04:44:38;98197.03;;;13.63;100.00
69971;BME280;57301;50.328;8.542;2022-10-22T04:47:05;98201.50;;;13.48;100.00
69971;BME280;57301;50.328;8.542;2022-10-22T04:49:31;98197.22;;;13.38;100.00
69971;BME280;57301;50.328;8.542;2022-10-22T04:51:58;98197.75;;;13.34;100.00
69971;BME280;57301;50.328;8.542;2022-10-22T04:54:24;98200.56;;;13.40;100.00
69971;BME280;57301;50.328;8.542;2022-10-22T04:56:57;98196.63;;;13.51;100.00
69971;BME280;57301;50.328;8.542;2022-10-22T04:59:24;98198.31;;;13.44;100.00
69971;BME280;57301;50.328;8.542;2022-10-22T05:01:50;98200.13;;;13.52;100.00
69971;BME280;57301;50.328;8.542;2022-10-22T05:04:17;98204.78;;;13.58;100.00
69971;BME280;57301;50.328;8.542;2022-10-22T05:06:44;98206.91;;;13.62;100.00
69971;BME280;57301;50.328;8.542;2022-10-22T05:09:18;98207.56;;;13.64;100.00
69971;BME280;57301;50.328;8.542;2022-10-22T05:11:47;98207.38;;;13.66;100.00
69971;BME280;57301;50.328;8.542;2022-10-22T05:14:19;98207.75;;;13.63;100.00
69971;BME280;57301;50.328;8.542;2022-10-22T05:16:47;98212.56;;;13.67;100.00
69971;BME280;57301;50.328;8.542;2022-10-22T05:19:17;98207.47;;;13.73;100.00
69971;BME280;57301;50.328;8.542;2022-10-22T05:21:44;98210.44;;;13.63;100.00
69971;BME280;57301;50.328;8.542;2022-10-22T05:24:11;98207.88;;;13.69;100.00
69971;BME280;57301;50.328;8.542;2022-10-22T05:26:38;98202.63;;;13.53;100.00
69971;BME280;57301;50.328;8.542;2022-10-22T05:29:04;98208.59;;;13.40;100.00
69971;BME280;57301;50.328;8.542;2022-10-22T05:31:31;98213.59;;;13.21;100.00
69971;BME280;57301;50.328;8.542;2022-10-22T05:33:57;98217.06;;;12.90;100.00
69971;BME280;57301;50.328;8.542;2022-10-22T05:36:24;98228.78;;;12.89;100.00
69971;BME280;57301;50.328;8.542;2022-10-22T05:38:50;98224.84;;;12.77;100.00
69971;BME280;57301;50.328;8.542;2022-10-22T05:41:22;98215.63;;;12.79;100.00
69971;BME280;57301;50.328;8.542;2022-10-22T05:43:49;98229.50;;;12.83;100.00
69971;BME280;57301;50.328;8.542;2022-10-22T05:46:17;98223.97;;;12.84;100.00
69971;BME280;57301;50.328;8.542;2022-10-22T05:48:56;98225.63;;;12.85;100.00
69971;BME280;57301;50.328;8.542;2022-10-22T05:51:24;98230.09;;;12.93;100.00
69971;BME280;57301;50.328;8.542;2022-10-22T05:53:53;98235.44;;;12.93;100.00
69971;BME280;57301;50.328;8.542;2022-10-22T05:56:20;98239.50;;;12.89;100.00
69971;BME280;57301;50.328;8.542;2022-10-22T05:58:47;98234.16;;;12.89;100.00
69971;BME280;57301;50.328;8.542;2022-10-22T06:03:42;98239.84;;;12.86;100.00
69971;BME280;57301;50.328;8.542;2022-10-22T06:06:29;98241.69;;;12.85;100.00
69971;BME280;57301;50.328;8.542;2022-10-22T06:09:04;98232.78;;;12.93;100.00
69971;BME280;57301;50.328;8.542;2022-10-22T06:11:32;98242.50;;;12.86;100.00
69971;BME280;57301;50.328;8.542;2022-10-22T06:14:01;98236.13;;;12.95;100.00
69971;BME280;57301;50.328;8.542;2022-10-22T06:16:28;98241.13;;;12.98;100.00
69971;BME280;57301;50.328;8.542;2022-10-22T06:18:55;98247.78;;;13.02;100.00
69971;BME280;57301;50.328;8.542;2022-10-22T06:21:21;98253.78;;;13.04;100.00
69971;BME280;57301;50.328;8.542;2022-10-22T06:23:48;98261.97;;;13.11;100.00
69971;BME280;57301;50.328;8.542;2022-10-22T06:26:14;98260.44;;;13.16;100.00
69971;BME280;57301;50.328;8.542;2022-10-22T06:28:42;98274.81;;;13.24;100.00
69971;BME280;57301;50.328;8.542;2022-10-22T06:31:09;98268.09;;;13.28;100.00
69971;BME280;57301;50.328;8.542;2022-10-22T06:33:35;98276.31;;;13.72;100.00
69971;BME280;57301;50.328;8.542;2022-10-22T06:36:08;98287.22;;;14.31;97.91
69971;BME280;57301;50.328;8.542;2022-10-22T06:38:35;98294.59;;;14.82;93.90
69971;BME280;57301;50.328;8.542;2022-10-22T06:41:04;98293.16;;;15.15;90.06
69971;BME280;57301;50.328;8.542;2022-10-22T06:43:30;98298.38;;;15.17;87.88
69971;BME280;57301;50.328;8.542;2022-10-22T06:45:59;98302.72;;;15.03;87.06
69971;BME280;57301;50.328;8.542;2022-10-22T06:48:26;98301.16;;;14.94;87.08
69971;BME280;57301;50.328;8.542;2022-10-22T06:50:52;98313.19;;;14.83;86.66
69971;BME280;57301;50.328;8.542;2022-10-22T06:53:18;98305.78;;;14.85;88.47
69971;BME280;57301;50.328;8.542;2022-10-22T06:55:46;98315.00;;;15.27;87.88
69971;BME280;57301;50.328;8.542;2022-10-22T06:58:12;98317.03;;;15.76;84.45
69971;BME280;57301;50.328;8.542;2022-10-22T07:00:39;98322.00;;;16.43;82.54
69971;BME280;57301;50.328;8.542;2022-10-22T07:03:05;98322.97;;;17.26;78.88
69971;BME280;57301;50.328;8.542;2022-10-22T07:05:33;98327.38;;;18.15;74.40
69971;BME280;57301;50.328;8.542;2022-10-22T07:07:59;98328.63;;;18.72;71.00
69971;BME280;57301;50.328;8.542;2022-10-22T07:10:25;98337.72;;;19.11;69.09
69971;BME280;57301;50.328;8.542;2022-10-22T07:12:56;98336.91;;;19.03;69.36
69971;BME280;57301;50.328;8.542;2022-10-22T07:15:23;98339.38;;;19.70;66.63
69971;BME280;57301;50.328;8.542;2022-10-22T07:17:50;98341.47;;;18.96;68.59
69971;BME280;57301;50.328;8.542;2022-10-22T07:20:19;98345.59;;;19.19;69.45
69971;BME280;57301;50.328;8.542;2022-10-22T07:22:46;98356.69;;;20.00;66.22
69971;BME280;57301;50.328;8.542;2022-10-22T07:25:13;98358.56;;;20.63;63.97
69971;BME280;57301;50.328;8.542;2022-10-22T07:27:39;98364.00;;;21.25;62.26
69971;BME280;57301;50.328;8.542;2022-10-22T07:30:07;98358.31;;;21.99;59.94
69971;BME280;57301;50.328;8.542;2022-10-22T07:32:33;98364.88;;;21.92;60.93
69971;BME280;57301;50.328;8.542;2022-10-22T07:35:00;98356.16;;;22.20;58.28
69971;BME280;57301;50.328;8.542;2022-10-22T07:37:26;98368.47;;;22.22;58.79
69971;BME280;57301;50.328;8.542;2022-10-22T07:39:53;98375.56;;;21.57;59.83
69971;BME280;57301;50.328;8.542;2022-10-22T07:42:19;98381.91;;;21.32;61.15
69971;BME280;57301;50.328;8.542;2022-10-22T07:44:45;98388.31;;;19.62;66.85
69971;BME280;57301;50.328;8.542;2022-10-22T07:47:12;98387.53;;;20.31;65.71
69971;BME280;57301;50.328;8.542;2022-10-22T07:49:38;98389.88;;;19.89;64.96
69971;BME280;57301;50.328;8.542;2022-10-22T07:52:05;98396.59;;;20.43;63.06
69971;BME280;57301;50.328;8.542;2022-10-22T07:54:32;98392.78;;;19.88;63.78
69971;BME280;57301;50.328;8.542;2022-10-22T07:56:58;98404.66;;;19.09;67.71
69971;BME280;57301;50.328;8.542;2022-10-22T07:59:25;98407.75;;;18.33;71.30
69971;BME280;57301;50.328;8.542;2022-10-22T08:01:51;98416.38;;;17.88;73.10
69971;BME280;57301;50.328;8.542;2022-10-22T08:04:18;98411.44;;;17.57;73.40
69971;BME280;57301;50.328;8.542;2022-10-22T08:06:44;98407.41;;;17.75;72.93
69971;BME280;57301;50.328;8.542;2022-10-22T08:09:12;98406.63;;;17.87;72.92
69971;BME280;57301;50.328;8.542;2022-10-22T08:11:39;98421.91;;;17.04;75.08
69971;BME280;57301;50.328;8.542;2022-10-22T08:14:05;98416.00;;;17.22;73.64
69971;BME280;57301;50.328;8.542;2022-10-22T08:16:32;98427.53;;;16.81;75.44
69971;BME280;57301;50.328;8.542;2022-10-22T08:18:58;98431.06;;;16.60;77.50
69971;BME280;57301;50.328;8.542;2022-10-22T08:21:25;98426.00;;;16.29;78.55
69971;BME280;57301;50.328;8.542;2022-10-22T08:23:52;98428.50;;;16.31;77.55
69971;BME280;57301;50.328;8.542;2022-10-22T08:26:18;98431.53;;;16.21;78.55
69971;BME280;57301;50.328;8.542;2022-10-22T08:28:50;98429.91;;;16.48;77.40
69971;BME280;57301;50.328;8.542;2022-10-22T08:31:16;98430.19;;;17.03;74.23
69971;BME280;57301;50.328;8.542;2022-10-22T08:33:43;98437.56;;;17.22;73.79
69971;BME280;57301;50.328;8.542;2022-10-22T08:36:09;98433.88;;;17.64;73.15
69971;BME280;57301;50.328;8.542;2022-10-22T08:38:36;98436.50;;;18.67;69.80
69971;BME280;57301;50.328;8.542;2022-10-22T08:41:15;98443.69;;;19.39;66.96
69971;BME280;57301;50.328;8.542;2022-10-22T08:43:48;98437.47;;;18.66;69.65
69971;BME280;57301;50.328;8.542;2022-10-22T08:49:09;98436.41;;;18.47;70.23
69971;BME280;57301;50.328;8.542;2022-10-22T08:51:38;98445.09;;;18.29;70.61
69971;BME280;57301;50.328;8.542;2022-10-22T08:57:15;98449.50;;;19.63;65.12
69971;BME280;57301;50.328;8.542;2022-10-22T09:05:19;98459.06;;;20.17;62.81
69971;BME280;57301;50.328;8.542;2022-10-22T09:07:48;98460.38;;;18.90;65.35
69971;BME280;57301;50.328;8.542;2022-10-22T09:10:17;98455.41;;;19.00;66.22
69971;BME280;57301;50.328;8.542;2022-10-22T09:12:46;98455.78;;;19.30;63.68
69971;BME280;57301;50.328;8.542;2022-10-22T09:15:15;98456.22;;;19.98;63.51
69971;BME280;57301;50.328;8.542;2022-10-22T09:26:02;98469.03;;;20.23;61.59
69971;BME280;57301;50.328;8.542;2022-10-22T09:28:30;98473.84;;;19.49;62.78
69971;BME280;57301;50.328;8.542;2022-10-22T09:30:56;98474.78;;;20.46;59.98
69971;BME280;57301;50.328;8.542;2022-10-22T09:33:29;98472.34;;;20.70;59.35
69971;BME280;57301;50.328;8.542;2022-10-22T09:36:01;98463.91;;;22.68;53.00
69971;BME280;57301;50.328;8.542;2022-10-22T09:38:31;98469.72;;;23.83;50.66
69971;BME280;57301;50.328;8.542;2022-10-22T09:41:00;98466.56;;;24.03;50.11
69971;BME280;57301;50.328;8.542;2022-10-22T09:43:28;98477.63;;;22.31;53.12
69971;BME280;57301;50.328;8.542;2022-10-22T09:45:57;98468.66;;;25.49;46.52
69971;BME280;57301;50.328;8.542;2022-10-22T09:51:05;98466.47;;;24.84;47.59
69971;BME280;57301;50.328;8.542;2022-10-22T09:53:37;98473.28;;;25.49;45.32
69971;BME280;57301;50.328;8.542;2022-10-22T09:56:38;98475.94;;;25.27;45.17
69971;BME280;57301;50.328;8.542;2022-10-22T09:59:02;98477.31;;;25.63;45.17
69971;BME280;57301;50.328;8.542;2022-10-22T10:01:35;98484.06;;;25.22;46.94
69971;BME280;57301;50.328;8.542;2022-10-22T10:04:09;98483.28;;;24.92;47.46
69971;BME280;57301;50.328;8.542;2022-10-22T10:06:37;98482.97;;;24.32;48.66
69971;BME280;57301;50.328;8.542;2022-10-22T10:09:15;98490.69;;;25.26;45.74
69971;BME280;57301;50.328;8.542;2022-10-22T10:11:52;98489.09;;;23.05;50.85
69971;BME280;57301;50.328;8.542;2022-10-22T10:14:36;98493.59;;;23.11;50.57
69971;BME280;57301;50.328;8.542;2022-10-22T10:17:28;98499.13;;;22.33;53.20
69971;BME280;57301;50.328;8.542;2022-10-22T10:20:12;98505.75;;;20.88;58.15
69971;BME280;57301;50.328;8.542;2022-10-22T10:23:07;98493.22;;;18.80;65.17
69971;BME280;57301;50.328;8.542;2022-10-22T10:28:21;98496.78;;;18.13;66.38
69971;BME280;57301;50.328;8.542;2022-10-22T10:37:09;98491.75;;;18.84;65.35
69971;BME280;57301;50.328;8.542;2022-10-22T10:48:41;98499.28;;;19.15;63.79
69971;BME280;57301;50.328;8.542;2022-10-22T10:54:02;98494.06;;;19.07;67.04
69971;BME280;57301;50.328;8.542;2022-10-22T10:56:44;98495.94;;;18.73;67.83
69971;BME280;57301;50.328;8.542;2022-10-22T11:02:09;98487.41;;;19.36;66.33
69971;BME280;57301;50.328;8.542;2022-10-22T11:07:15;98487.38;;;21.15;58.67
69971;BME280;57301;50.328;8.542;2022-10-22T11:13:13;98488.34;;;21.89;56.80
69971;BME280;57301;50.328;8.542;2022-10-22T11:15:46;98484.00;;;22.97;55.02
69971;BME280;57301;50.328;8.542;2022-10-22T11:18:19;98478.53;;;24.43;47.23
69971;BME280;57301;50.328;8.542;2022-10-22T11:21:09;98483.44;;;22.46;50.98
69971;BME280;57301;50.328;8.542;2022-10-22T11:23:54;98488.94;;;22.28;53.46
69971;BME280;57301;50.328;8.542;2022-10-22T11:26:40;98481.78;;;22.75;50.99
69971;BME280;57301;50.328;8.542;2022-10-22T11:29:25;98492.72;;;21.29;54.54
69971;BME280;57301;50.328;8.542;2022-10-22T11:31:58;98483.75;;;21.90;53.09
69971;BME280;57301;50.328;8.542;2022-10-22T11:34:57;98494.50;;;20.85;56.29
69971;BME280;57301;50.328;8.542;2022-10-22T11:37:27;98494.06;;;19.40;61.66
69971;BME280;57301;50.328;8.542;2022-10-22T11:40:16;98498.97;;;18.57;65.16
69971;BME280;57301;50.328;8.542;2022-10-22T11:42:48;98502.28;;;18.46;65.86
69971;BME280;57301;50.328;8.542;2022-10-22T11:50:27;98496.28;;;19.70;62.22
69971;BME280;57301;50.328;8.542;2022-10-22T11:55:42;98496.75;;;19.40;61.05
69971;BME280;57301;50.328;8.542;2022-10-22T12:00:56;98489.03;;;21.16;56.85
69971;BME280;57301;50.328;8.542;2022-10-22T12:03:38;98495.09;;;20.93;58.23
69971;BME280;57301;50.328;8.542;2022-10-22T12:21:52;98469.69;;;24.24;46.89
69971;BME280;57301;50.328;8.542;2022-10-22T12:24:22;98470.19;;;22.68;50.71
69971;BME280;57301;50.328;8.542;2022-10-22T12:26:49;98463.09;;;23.68;49.88
69971;BME280;57301;50.328;8.542;2022-10-22T12:29:20;98474.31;;;21.56;53.57
69971;BME280;57301;50.328;8.542;2022-10-22T12:31:49;98470.78;;;21.05;55.57
69971;BME280;57301;50.328;8.542;2022-10-22T12:34:19;98469.13;;;20.03;59.93
69971;BME280;57301;50.328;8.542;2022-10-22T12:36:48;98465.53;;;20.85;56.59
69971;BME280;57301;50.328;8.542;2022-10-22T12:39:26;98470.41;;;20.38;58.56
69971;BME280;57301;50.328;8.542;2022-10-22T12:41:53;98466.91;;;19.86;59.33
69971;BME280;57301;50.328;8.542;2022-10-22T12:44:19;98468.19;;;20.92;57.96
69971;BME280;57301;50.328;8.542;2022-10-22T12:46:48;98467.09;;;21.00;56.52
69971;BME280;57301;50.328;8.542;2022-10-22T12:49:24;98463.22;;;19.54;60.64
69971;BME280;57301;50.328;8.542;2022-10-22T12:51:52;98474.38;;;20.36;59.04
69971;BME280;57301;50.328;8.542;2022-10-22T12:54:28;98481.06;;;19.82;60.32
69971;BME280;57301;50.328;8.542;2022-10-22T12:56:56;98476.28;;;20.29;59.23
69971;BME280;57301;50.328;8.542;2022-10-22T12:59:37;98479.03;;;20.60;59.03
69971;BME280;57301;50.328;8.542;2022-10-22T13:02:16;98481.41;;;20.05;60.60
69971;BME280;57301;50.328;8.542;2022-10-22T13:05:14;98479.69;;;20.18;59.68
69971;BME280;57301;50.328;8.542;2022-10-22T13:07:45;98479.03;;;19.77;60.80
69971;BME280;57301;50.328;8.542;2022-10-22T13:10:29;98483.03;;;19.28;61.97
69971;BME280;57301;50.328;8.542;2022-10-22T13:12:57;98494.91;;;19.34;62.37
69971;BME280;57301;50.328;8.542;2022-10-22T13:18:19;98499.59;;;18.52;63.07
69971;BME280;57301;50.328;8.542;2022-10-22T13:20:55;98494.84;;;18.61;63.21
69971;BME280;57301;50.328;8.542;2022-10-22T13:23:24;98504.75;;;18.47;64.48
69971;BME280;57301;50.328;8.542;2022-10-22T13:28:29;98492.63;;;22.64;52.67
69971;BME280;57301;50.328;8.542;2022-10-22T13:31:08;98485.69;;;25.73;44.74
69971;BME280;57301;50.328;8.542;2022-10-22T13:33:38;98484.06;;;26.16;43.14
69971;BME280;57301;50.328;8.542;2022-10-22T13:36:10;98477.38;;;25.68;42.48
69971;BME280;57301;50.328;8.542;2022-10-22T13:38:38;98486.00;;;24.92;44.20
69971;BME280;57301;50.328;8.542;2022-10-22T13:41:26;98489.72;;;24.29;46.14
69971;BME280;57301;50.328;8.542;2022-10-22T13:43:53;98489.31;;;24.95;44.80
69971;BME280;57301;50.328;8.542;2022-10-22T13:46:21;98484.06;;;25.22;43.65
69971;BME280;57301;50.328;8.542;2022-10-22T13:48:49;98488.03;;;24.69;45.71
69971;BME280;57301;50.328;8.542;2022-10-22T13:51:20;98491.47;;;23.95;45.63
69971;BME280;57301;50.328;8.542;2022-10-22T13:53:48;98494.31;;;21.61;53.06
69971;BME280;57301;50.328;8.542;2022-10-22T13:56:17;98499.63;;;20.68;56.28
69971;BME280;57301;50.328;8.542;2022-10-22T13:58:45;98494.53;;;20.08;58.60
69971;BME280;57301;50.328;8.542;2022-10-22T14:01:26;98499.94;;;20.08;58.82
69971;BME280;57301;50.328;8.542;2022-10-22T14:03:57;98495.66;;;20.71;57.64
69971;BME280;57301;50.328;8.542;2022-10-22T14:06:30;98493.94;;;19.93;58.78
69971;BME280;57301;50.328;8.542;2022-10-22T14:09:01;98495.84;;;20.31;57.94
69971;BME280;57301;50.328;8.542;2022-10-22T14:11:28;98495.94;;;20.56;57.53
69971;BME280;57301;50.328;8.542;2022-10-22T14:13:58;98496.16;;;20.16;57.72
69971;BME280;57301;50.328;8.542;2022-10-22T14:16:28;98495.84;;;19.86;58.80
69971;BME280;57301;50.328;8.542;2022-10-22T14:18:58;98492.41;;;18.73;61.06
69971;BME280;57301;50.328;8.542;2022-10-22T14:21:28;98497.19;;;19.04;61.59
69971;BME280;57301;50.328;8.542;2022-10-22T14:23:58;98494.06;;;18.81;62.46
69971;BME280;57301;50.328;8.542;2022-10-22T14:26:27;98492.75;;;18.57;62.78
69971;BME280;57301;50.328;8.542;2022-10-22T14:28:55;98501.66;;;18.50;62.06
69971;BME280;57301;50.328;8.542;2022-10-22T14:31:36;98490.75;;;18.98;61.60
69971;BME280;57301;50.328;8.542;2022-10-22T14:34:02;98497.97;;;19.44;61.15
69971;BME280;57301;50.328;8.542;2022-10-22T14:36:29;98494.91;;;18.94;61.76
69971;BME280;57301;50.328;8.542;2022-10-22T14:38:55;98493.44;;;19.25;60.92
69971;BME280;57301;50.328;8.542;2022-10-22T14:41:24;98494.06;;;19.14;62.28
69971;BME280;57301;50.328;8.542;2022-10-22T14:43:51;98487.84;;;18.93;62.85
69971;BME280;57301;50.328;8.542;2022-10-22T14:46:18;98491.16;;;18.95;62.88
69971;BME280;57301;50.328;8.542;2022-10-22T14:48:45;98490.13;;;19.29;61.99
69971;BME280;57301;50.328;8.542;2022-10-22T14:51:13;98486.34;;;18.77;63.14
69971;BME280;57301;50.328;8.542;2022-10-22T14:53:41;98490.28;;;18.62;64.05
69971;BME280;57301;50.328;8.542;2022-10-22T14:56:16;98494.06;;;18.81;63.84
69971;BME280;57301;50.328;8.542;2022-10-22T14:58:43;98499.78;;;18.51;64.83
69971;BME280;57301;50.328;8.542;2022-10-22T15:01:10;98499.47;;;18.94;62.96
69971;BME280;57301;50.328;8.542;2022-10-22T15:03:37;98502.19;;;19.00;61.79